Time;durP1;ratioP1;P1;durP2;ratioP2;P2;SDS_P1;SDS_P2;PMS_P1;PMS_P2;Temp;Humidity;BMP_temperature;BMP_pressure;BME280_temperature;BME280_humidity;BME280_pressure;Samples;Min_cycle;Max_cycle;Signal;HPM_P1;HPM_P2
2021/03/16 00:00:09;;;;;;;36.15;18.92;;;;;;;5.61;79.60;99306.88;1697786;83;21407;-63
2021/03/16 00:02:56;;;;;;;33.88;17.50;;;;;;;5.62;79.69;99304.48;1697826;83;21175;-63
2021/03/16 00:05:26;;;;;;;30.32;16.15;;;;;;;5.62;79.62;99301.77;1697971;84;22087;-62
2021/03/16 00:07:53;;;;;;;36.83;17.02;;;;;;;5.62;79.56;99305.33;1698073;83;21426;-63
2021/03/16 00:10:20;;;;;;;36.10;17.77;;;;;;;5.61;79.55;99300.94;1698117;83;21219;-61
2021/03/16 00:12:48;;;;;;;35.95;18.35;;;;;;;5.61;79.57;99298.73;1697918;83;21418;-62
2021/03/16 00:15:16;;;;;;;35.68;16.93;;;;;;;5.62;79.56;99289.55;1697949;84;21144;-62
2021/03/16 00:17:44;;;;;;;38.70;18.10;;;;;;;5.60;79.50;99283.47;1698141;84;21441;-61
2021/03/16 00:20:14;;;;;;;40.10;18.70;;;;;;;5.53;79.43;99280.68;1697951;83;21200;-62
2021/03/16 00:22:41;;;;;;;39.88;18.77;;;;;;;5.48;79.57;99281.77;1697929;83;21157;-62
2021/03/16 00:25:12;;;;;;;35.92;18.32;;;;;;;5.49;79.67;99282.61;1697510;83;21510;-63
2021/03/16 00:27:40;;;;;;;36.83;20.12;;;;;;;5.51;79.68;99285.98;1698084;83;21203;-62
2021/03/16 00:30:09;;;;;;;36.70;19.25;;;;;;;5.49;79.67;99288.05;1697955;84;21211;-61
2021/03/16 00:32:36;;;;;;;37.50;17.87;;;;;;;5.47;79.54;99294.19;1697907;84;21886;-62
2021/03/16 00:35:05;;;;;;;34.60;17.48;;;;;;;5.47;79.57;99295.55;1697965;84;21278;-62
2021/03/16 00:37:33;;;;;;;37.25;17.12;;;;;;;5.51;79.58;99303.64;1697953;84;21453;-62
2021/03/16 00:40:01;;;;;;;35.90;16.90;;;;;;;5.52;79.43;99302.61;1697970;83;21415;-63
2021/03/16 00:42:28;;;;;;;32.58;16.52;;;;;;;5.52;79.40;99307.52;1697956;84;21219;-62
2021/03/16 00:44:56;;;;;;;28.07;15.53;;;;;;;5.51;79.40;99296.84;1697958;83;21998;-62
2021/03/16 00:47:23;;;;;;;29.63;14.87;;;;;;;5.53;79.34;99296.98;1698084;83;21469;-62
2021/03/16 00:49:51;;;;;;;29.63;15.48;;;;;;;5.56;79.21;99295.75;1697982;83;21191;-62
2021/03/16 00:52:19;;;;;;;28.12;15.38;;;;;;;5.57;79.01;99290.13;1698001;83;21164;-62
2021/03/16 00:54:46;;;;;;;29.18;15.95;;;;;;;5.56;78.81;99295.23;1698055;83;21445;-62
2021/03/16 00:57:14;;;;;;;30.00;15.78;;;;;;;5.55;78.68;99289.99;1697962;84;21179;-63
2021/03/16 00:59:41;;;;;;;32.85;16.27;;;;;;;5.53;78.61;99292.06;1697953;83;21404;-62
2021/03/16 01:02:09;;;;;;;30.35;14.68;;;;;;;5.53;78.66;99299.70;1697965;84;21445;-62
2021/03/16 01:04:37;;;;;;;28.75;14.00;;;;;;;5.57;78.56;99285.21;1698064;83;21432;-61
2021/03/16 01:07:04;;;;;;;26.73;14.90;;;;;;;5.58;78.29;99290.97;1697998;84;21910;-63
2021/03/16 01:09:31;;;;;;;28.25;14.95;;;;;;;5.58;78.09;99293.69;1697923;83;21926;-61
2021/03/16 01:11:59;;;;;;;25.60;13.85;;;;;;;5.56;77.99;99297.95;1697938;83;21553;-63
2021/03/16 01:14:26;;;;;;;26.40;13.18;;;;;;;5.55;77.88;99291.35;1697952;84;21536;-62
2021/03/16 01:16:54;;;;;;;25.88;12.88;;;;;;;5.55;77.73;99281.84;1697944;84;21159;-62
2021/03/16 01:19:21;;;;;;;23.45;12.50;;;;;;;5.55;77.55;99282.69;1697955;83;21453;-62
2021/03/16 01:21:48;;;;;;;21.25;12.47;;;;;;;5.58;77.30;99285.53;1697880;84;21187;-62
2021/03/16 01:24:16;;;;;;;24.23;13.05;;;;;;;5.61;77.05;99276.48;1697826;83;21227;-62
2021/03/16 01:26:45;;;;;;;24.15;12.88;;;;;;;5.64;76.79;99272.53;1697897;84;21149;-62
2021/03/16 01:29:13;;;;;;;23.12;13.45;;;;;;;5.66;76.51;99267.75;1697935;84;21207;-61
2021/03/16 01:31:40;;;;;;;24.02;12.45;;;;;;;5.66;76.25;99275.90;1697909;84;21470;-61
2021/03/16 01:34:13;;;;;;;24.07;11.80;;;;;;;5.64;76.09;99280.69;1697925;84;21211;-61
2021/03/16 01:36:41;;;;;;;26.17;13.40;;;;;;;5.61;75.97;99283.79;1695329;83;21533;-62
2021/03/16 01:39:08;;;;;;;26.45;13.75;;;;;;;5.56;75.96;99273.50;1686255;85;21236;-62
2021/03/16 01:41:37;;;;;;;25.25;13.50;;;;;;;5.56;75.97;99278.09;1686282;83;21279;-63
2021/03/16 01:44:05;;;;;;;24.75;13.28;;;;;;;5.54;75.84;99263.86;1686260;83;21409;-62
2021/03/16 01:46:33;;;;;;;22.60;12.00;;;;;;;5.53;75.85;99266.25;1686306;83;21205;-61
2021/03/16 01:49:00;;;;;;;24.27;12.47;;;;;;;5.52;75.75;99266.77;1661064;85;21180;-61
2021/03/16 01:51:28;;;;;;;28.00;12.10;;;;;;;5.49;75.63;99268.52;1686343;83;21187;-62
2021/03/16 01:53:55;;;;;;;20.92;12.15;;;;;;;5.46;75.70;99265.34;1686170;85;21204;-60
2021/03/16 01:56:25;;;;;;;23.70;12.93;;;;;;;5.44;75.77;99273.69;1686335;83;21188;-61
2021/03/16 01:59:18;;;;;;;26.70;13.62;;;;;;;5.43;75.85;99277.95;1664791;83;21872;-62
2021/03/16 02:02:04;;;;;;;30.77;15.32;;;;;;;5.41;75.79;99280.34;1686208;83;21177;-62
2021/03/16 02:04:52;;;;;;;27.62;12.73;;;;;;;5.40;75.78;99278.66;1686161;84;21886;-62
2021/03/16 02:07:49;;;;;;;25.32;12.93;;;;;;;5.40;75.68;99277.82;1686308;85;21408;-62
2021/03/16 02:11:20;;;;;;;24.37;12.73;;;;;;;5.38;75.61;99275.30;1686356;83;21152;-62
2021/03/16 02:14:28;;;;;;;22.75;13.08;;;;;;;5.41;75.67;99272.19;1686217;85;21336;-62
2021/03/16 02:17:18;;;;;;;;;;;;;;;5.39;75.48;99268.83;1688836;85;21478;-61
2021/03/16 02:20:18;;;;;;;22.75;13.03;;;;;;;5.36;75.46;99279.23;1686289;83;20194;-62
2021/03/16 02:23:04;;;;;;;26.17;12.90;;;;;;;5.32;75.39;99276.06;1686210;85;21856;-62
2021/03/16 02:26:11;;;;;;;22.27;12.82;;;;;;;5.30;75.28;99276.77;1686132;83;21181;-61
2021/03/16 02:29:20;;;;;;;23.27;13.10;;;;;;;5.30;75.23;99274.05;1686167;85;21414;-63
2021/03/16 02:32:25;;;;;;;24.10;12.95;;;;;;;5.24;75.24;99272.62;1686543;83;21288;-62
2021/03/16 02:35:12;;;;;;;27.48;12.98;;;;;;;5.20;75.27;99267.22;1686170;83;21284;-63
2021/03/16 02:37:58;;;;;;;30.43;13.95;;;;;;;5.17;75.26;99275.74;1681307;84;21240;-61
2021/03/16 02:40:46;;;;;;;28.55;14.13;;;;;;;5.14;75.31;99274.77;1677838;85;21181;-61
2021/03/16 02:43:33;;;;;;;25.17;13.90;;;;;;;5.14;75.30;99270.17;1677690;84;21157;-61
2021/03/16 02:46:19;;;;;;;24.25;14.43;;;;;;;5.19;75.24;99275.03;1677757;84;21464;-62
2021/03/16 02:49:05;;;;;;;28.62;14.03;;;;;;;5.21;75.10;99272.48;1677869;84;21184;-62
2021/03/16 02:51:52;;;;;;;26.85;15.08;;;;;;;5.20;74.83;99276.72;1678016;84;21208;-61
2021/03/16 02:54:38;;;;;;;30.10;14.45;;;;;;;5.17;74.66;99270.31;1677760;84;21173;-61
2021/03/16 02:57:26;;;;;;;;;;;;;;;5.17;74.64;99267.08;1680424;84;21165;-61
2021/03/16 03:00:12;;;;;;;26.40;13.50;;;;;;;5.17;74.42;99272.52;1677851;84;20197;-61
2021/03/16 03:02:58;;;;;;;26.23;14.15;;;;;;;5.16;74.25;99267.27;1677860;85;21296;-61
2021/03/16 03:05:45;;;;;;;27.87;13.90;;;;;;;5.16;74.15;99269.98;1677815;84;21320;-62
2021/03/16 03:08:31;;;;;;;26.82;14.53;;;;;;;5.16;74.06;99266.75;1677856;84;21212;-62
2021/03/16 03:11:17;;;;;;;26.07;14.13;;;;;;;5.14;73.90;99260.67;1677781;84;21146;-62
2021/03/16 03:14:04;;;;;;;26.17;13.35;;;;;;;5.10;73.83;99263.45;1677804;85;21180;-61
2021/03/16 03:16:50;;;;;;;27.10;13.45;;;;;;;5.06;73.78;99267.06;1677930;84;21224;-62
2021/03/16 03:19:37;;;;;;;29.15;14.65;;;;;;;5.06;73.77;99263.50;1677781;84;21157;-63
2021/03/16 03:22:39;;;;;;;27.93;14.65;;;;;;;5.03;73.81;99265.23;1677833;84;21228;-63
2021/03/16 03:25:40;;;;;;;39.38;22.37;;;;;;;5.02;74.02;99262.20;1677223;85;21168;-62
2021/03/16 03:28:32;;;;;;;28.83;15.58;;;;;;;5.00;74.06;99265.10;1677924;85;21172;-61
2021/03/16 03:31:19;;;;;;;26.85;13.45;;;;;;;4.94;73.98;99260.95;1677858;84;21166;-62
2021/03/16 03:34:05;;;;;;;27.62;14.73;;;;;;;4.87;73.99;99266.81;1677910;84;22034;-61
2021/03/16 03:36:54;;;;;;;31.85;16.80;;;;;;;4.80;74.24;99268.08;1677852;84;21165;-62
2021/03/16 03:39:39;;;;;;;;;;;;;;;4.77;74.38;99270.66;1680407;85;21168;-61
2021/03/16 03:42:25;;;;;;;28.70;15.53;;;;;;;4.76;74.33;99264.06;1678046;84;20654;-61
2021/03/16 03:45:13;;;;;;;30.57;15.93;;;;;;;4.74;74.33;99268.32;1677923;84;21395;-61
2021/03/16 03:48:01;;;;;;;36.73;17.15;;;;;;;4.73;74.26;99268.50;1678053;85;21316;-62
2021/03/16 03:50:52;;;;;;;31.82;16.55;;;;;;;4.73;74.06;99271.22;1677871;84;21300;-62
2021/03/16 03:53:39;;;;;;;32.95;17.25;;;;;;;4.72;73.74;99270.89;1677944;85;21472;-62
2021/03/16 03:56:24;;;;;;;30.68;16.57;;;;;;;4.69;73.52;99270.75;1677886;85;21176;-63
2021/03/16 03:59:11;;;;;;;31.90;16.12;;;;;;;4.68;73.25;99272.30;1677905;85;21193;-62
2021/03/16 04:01:56;;;;;;;26.52;14.73;;;;;;;4.67;73.04;99265.19;1677815;84;21463;-64
2021/03/16 04:04:42;;;;;;;29.80;14.38;;;;;;;4.62;72.69;99260.33;1677944;84;21181;-62
2021/03/16 04:07:28;;;;;;;29.63;15.38;;;;;;;4.56;72.55;99256.16;1678031;84;21392;-61
2021/03/16 04:10:15;;;;;;;26.07;13.90;;;;;;;4.52;72.47;99257.02;1677831;84;22067;-62
2021/03/16 04:13:04;;;;;;;25.90;13.72;;;;;;;4.51;72.39;99256.69;1677984;85;21400;-62
2021/03/16 04:15:50;;;;;;;26.65;14.45;;;;;;;4.51;72.35;99258.05;1677881;84;21224;-62
2021/03/16 04:18:38;;;;;;;26.85;14.87;;;;;;;4.50;72.11;99257.72;1677877;84;22029;-63
2021/03/16 04:21:23;;;;;;;26.35;13.48;;;;;;;4.48;71.99;99252.16;1661573;85;21895;-62
2021/03/16 04:24:09;;;;;;;30.35;14.18;;;;;;;4.45;71.87;99259.64;1677895;85;21168;-62
2021/03/16 04:26:55;;;;;;;27.45;13.55;;;;;;;4.44;71.85;99255.76;1677854;85;21185;-62
2021/03/16 04:29:41;;;;;;;30.85;15.55;;;;;;;4.42;71.83;99257.30;1677899;84;21145;-62
2021/03/16 04:32:27;;;;;;;33.48;16.48;;;;;;;4.40;71.85;99258.00;1677876;85;21180;-62
2021/03/16 04:35:13;;;;;;;34.90;18.75;;;;;;;4.38;71.86;99261.41;1677803;84;21280;-62
2021/03/16 04:37:59;;;;;;;40.92;19.15;;;;;;;4.35;71.82;99258.23;1680276;84;21176;-62
2021/03/16 04:40:45;;;;;;;40.45;20.08;;;;;;;4.35;71.92;99267.72;1686225;85;21461;-61
2021/03/16 04:43:32;;;;;;;37.33;18.55;;;;;;;4.36;71.87;99277.54;1686273;83;21389;-62
2021/03/16 04:46:18;;;;;;;41.95;20.52;;;;;;;4.36;71.77;99274.83;1686251;83;21340;-62
2021/03/16 04:49:04;;;;;;;43.98;22.42;;;;;;;4.33;71.66;99275.20;1686229;85;21494;-62
2021/03/16 04:51:50;;;;;;;35.20;19.27;;;;;;;4.31;71.73;99268.61;1686234;85;21407;-61
2021/03/16 04:54:36;;;;;;;38.88;19.05;;;;;;;4.32;71.77;99271.64;1686281;85;21177;-62
2021/03/16 04:57:22;;;;;;;35.95;18.42;;;;;;;4.34;71.75;99280.44;1686248;83;21160;-62
2021/03/16 05:00:09;;;;;;;34.45;17.82;;;;;;;4.33;71.52;99276.55;1686210;85;21899;-63
2021/03/16 05:02:55;;;;;;;33.30;16.53;;;;;;;4.32;71.55;99282.48;1686424;85;21231;-63
2021/03/16 05:05:41;;;;;;;33.48;15.93;;;;;;;4.33;71.46;99273.84;1686184;83;21564;-62
2021/03/16 05:08:26;;;;;;;35.92;16.93;;;;;;;4.34;71.40;99276.88;1686227;85;21173;-62
2021/03/16 05:11:12;;;;;;;36.05;16.67;;;;;;;4.34;71.41;99275.53;1686244;85;21977;-62
2021/03/16 05:13:58;;;;;;;26.65;15.65;;;;;;;4.33;71.38;99280.11;1686364;85;21172;-62
2021/03/16 05:16:44;;;;;;;33.40;15.18;;;;;;;4.32;71.37;99283.84;1686215;83;21180;-62
2021/03/16 05:19:30;;;;;;;31.90;15.90;;;;;;;4.33;71.33;99275.20;1687884;83;21993;-61
2021/03/16 05:22:16;;;;;;;25.77;13.22;;;;;;;4.31;71.31;99281.32;1690316;85;21432;-62
2021/03/16 05:25:05;;;;;;;26.57;13.65;;;;;;;4.33;71.32;99280.62;1690331;85;21249;-61
2021/03/16 05:27:51;;;;;;;29.90;13.88;;;;;;;4.32;71.21;99284.36;1690289;85;21224;-61
2021/03/16 05:30:36;;;;;;;26.10;12.93;;;;;;;4.33;71.32;99280.62;1690386;85;21253;-64
2021/03/16 05:33:22;;;;;;;28.52;13.65;;;;;;;4.35;71.30;99284.83;1690234;85;21960;-61
2021/03/16 05:36:09;;;;;;;25.50;13.13;;;;;;;4.37;71.30;99281.94;1690077;85;22003;-63
2021/03/16 05:38:55;;;;;;;24.65;12.55;;;;;;;4.37;71.25;99284.64;1686280;84;21194;-62
2021/03/16 05:41:41;;;;;;;37.83;17.55;;;;;;;4.39;71.27;99284.79;1682932;84;21398;-63
2021/03/16 05:44:27;;;;;;;26.40;13.00;;;;;;;4.44;71.26;99284.23;1683672;85;21175;-61
2021/03/16 05:47:13;;;;;;;26.42;13.03;;;;;;;4.47;71.24;99283.86;1683541;85;21181;-62
2021/03/16 05:50:00;;;;;;;26.65;12.55;;;;;;;4.50;71.18;99286.72;1683846;84;21442;-62
2021/03/16 05:52:46;;;;;;;27.98;13.28;;;;;;;4.51;71.09;99293.31;1683646;85;21909;-62
2021/03/16 05:55:32;;;;;;;26.25;13.48;;;;;;;4.50;71.02;99297.05;1683616;85;21173;-62
2021/03/16 05:58:19;;;;;;;27.00;12.98;;;;;;;4.50;71.05;99301.63;1683951;85;21421;-62
2021/03/16 06:01:05;;;;;;;28.95;12.55;;;;;;;4.52;71.10;99302.29;1683323;85;21510;-62
2021/03/16 06:03:51;;;;;;;24.82;12.03;;;;;;;4.54;70.96;99301.08;1683781;85;21213;-62
2021/03/16 06:06:38;;;;;;;26.95;13.00;;;;;;;4.56;70.90;99304.47;1678054;84;21159;-62
2021/03/16 06:09:24;;;;;;;25.40;12.23;;;;;;;4.58;70.88;99307.84;1680588;85;21861;-62
2021/03/16 06:12:10;;;;;;;23.98;12.10;;;;;;;4.57;70.76;99303.45;1683785;84;21241;-63
2021/03/16 06:15:11;;;;;;;21.35;10.32;;;;;;;4.57;70.81;99299.37;1683574;85;21182;-62
2021/03/16 06:17:57;;;;;;;22.27;10.88;;;;;;;4.58;70.70;99288.86;1633155;86;22026;-62
2021/03/16 06:20:42;;;;;;;28.32;11.57;;;;;;;4.58;70.61;99296.15;1641105;86;21350;-62
2021/03/16 06:23:32;;;;;;;26.30;11.85;;;;;;;4.56;70.65;99299.05;1640941;86;21442;-62
2021/03/16 06:26:19;;;;;;;20.95;10.28;;;;;;;4.56;70.82;99301.76;1641112;86;21936;-63
2021/03/16 06:29:08;;;;;;;20.08;11.00;;;;;;;4.60;70.88;99304.43;1640874;86;21944;-63
2021/03/16 06:31:54;;;;;;;24.60;10.72;;;;;;;4.63;70.89;99312.19;1668779;83;21449;-63
2021/03/16 06:34:40;;;;;;;29.32;12.53;;;;;;;4.67;70.92;99324.36;1711448;83;21394;-62
2021/03/16 06:37:26;;;;;;;27.87;12.75;;;;;;;4.73;71.00;99334.47;1711434;83;21189;-62
2021/03/16 06:40:13;;;;;;;25.08;11.90;;;;;;;4.78;71.05;99325.77;1682685;84;21392;-63
2021/03/16 06:43:09;;;;;;;25.10;11.48;;;;;;;4.80;71.01;99323.70;1704894;83;21175;-62
2021/03/16 06:45:55;;;;;;;26.97;11.63;;;;;;;4.80;70.96;99333.72;1704556;83;21167;-62
2021/03/16 06:48:41;;;;;;;24.37;10.63;;;;;;;4.80;70.99;99323.70;1704839;84;21406;-62
2021/03/16 06:51:29;;;;;;;28.90;11.45;;;;;;;4.82;70.96;99316.73;1704913;83;21240;-64
2021/03/16 06:54:19;;;;;;;;;;;;;;;4.84;70.97;99323.66;1707447;83;21219;-62
2021/03/16 06:57:08;;;;;;;26.73;12.70;;;;;;;4.92;71.09;99326.80;1684605;85;20207;-63
2021/03/16 06:59:54;;;;;;;16.57;8.58;;;;;;;4.97;70.97;99327.07;1704913;83;21207;-63
2021/03/16 07:02:40;;;;;;;21.50;10.95;;;;;;;5.03;70.96;99324.95;1704226;84;21526;-63
2021/03/16 07:05:28;;;;;;;24.52;11.78;;;;;;;5.08;70.75;99322.52;1697585;84;21586;-62
2021/03/16 07:08:14;;;;;;;25.85;12.07;;;;;;;5.11;70.71;99322.14;1704779;84;21418;-64
2021/03/16 07:11:03;;;;;;;29.25;12.13;;;;;;;5.16;70.72;99319.70;1704664;84;21836;-62
2021/03/16 07:13:50;;;;;;;20.68;10.68;;;;;;;5.20;70.61;99324.23;1704780;84;21475;-63
2021/03/16 07:16:37;;;;;;;23.80;10.88;;;;;;;5.27;70.65;99320.60;1704346;83;21974;-62
2021/03/16 07:19:23;;;;;;;28.95;12.50;;;;;;;5.34;70.35;99324.23;1704800;83;21938;-61
2021/03/16 07:22:13;;;;;;;30.60;13.65;;;;;;;5.35;70.22;99331.36;1678319;83;21188;-64
2021/03/16 07:24:59;;;;;;;61.77;22.00;;;;;;;5.35;70.20;99316.42;1682127;84;21088;-62
2021/03/16 07:27:44;;;;;;;31.42;13.00;;;;;;;5.41;70.18;99317.53;1704852;84;22032;-63
2021/03/16 07:30:32;;;;;;;41.05;19.57;;;;;;;5.47;70.41;99314.05;1704496;84;21929;-63
2021/03/16 07:33:18;;;;;;;34.10;14.15;;;;;;;5.57;70.31;99295.56;1704820;84;21073;-63
2021/03/16 07:36:05;;;;;;;26.42;12.58;;;;;;;5.67;70.13;99294.73;1704630;83;21025;-63
2021/03/16 07:38:53;;;;;;;27.73;12.43;;;;;;;5.76;69.98;99291.87;1706535;83;21064;-63
2021/03/16 07:41:40;;;;;;;50.35;18.95;;;;;;;5.84;69.67;99293.95;1714729;83;21719;-63
2021/03/16 07:44:26;;;;;;;42.17;14.83;;;;;;;5.94;69.39;99295.05;1700328;83;21101;-63
2021/03/16 07:47:12;;;;;;;64.25;20.57;;;;;;;6.04;69.18;99293.67;1636340;86;22661;-62
2021/03/16 07:50:06;;;;;;;41.13;16.05;;;;;;;6.11;68.97;99299.69;1668606;84;21064;-63
2021/03/16 07:52:51;;;;;;;50.78;18.00;;;;;;;6.13;68.70;99293.54;1668709;84;21106;-63
2021/03/16 07:55:38;;;;;;;39.48;16.42;;;;;;;6.16;68.46;99289.06;1668847;85;21207;-62
2021/03/16 07:58:25;;;;;;;31.30;15.43;;;;;;;6.16;68.38;99284.47;1668732;86;21274;-63
2021/03/16 08:01:13;;;;;;;133.37;39.90;;;;;;;6.22;68.39;99296.44;1668477;85;21116;-62
2021/03/16 08:04:07;;;;;;;62.88;20.62;;;;;;;6.32;68.42;99291.50;1672531;83;21783;-63
2021/03/16 08:06:58;;;;;;;52.23;21.40;;;;;;;6.44;68.06;99293.16;1690905;84;21050;-64
2021/03/16 08:09:47;;;;;;;35.25;15.40;;;;;;;6.53;67.66;99288.75;1696936;84;21733;-65
2021/03/16 08:12:33;;;;;;;37.67;17.25;;;;;;;6.60;67.94;99288.27;1696771;84;21293;-63
2021/03/16 08:15:21;;;;;;;34.98;17.92;;;;;;;6.68;67.77;99279.95;1691721;83;21106;-64
2021/03/16 08:18:11;;;;;;;93.95;40.40;;;;;;;6.72;67.15;99276.31;1718595;83;21785;-63
2021/03/16 08:21:10;;;;;;;84.28;34.73;;;;;;;6.73;67.17;99286.68;1691311;83;21150;-63
2021/03/16 08:24:05;;;;;;;59.67;24.70;;;;;;;6.77;67.09;99285.23;1703697;83;21678;-63
2021/03/16 08:26:53;;;;;;;53.63;23.05;;;;;;;6.89;67.51;99294.00;1696977;83;22170;-63
2021/03/16 08:29:44;;;;;;;;;;;;;;;6.96;66.83;99292.67;1674507;85;21365;-63
2021/03/16 08:32:31;;;;;;;40.95;19.05;;;;;;;6.97;66.71;99292.98;1685203;84;20264;-64
2021/03/16 08:35:18;;;;;;;42.60;20.10;;;;;;;6.99;66.52;99283.58;1685912;84;21224;-63
2021/03/16 08:38:08;;;;;;;34.55;16.80;;;;;;;7.04;66.23;99282.97;1671466;84;21069;-63
2021/03/16 08:41:15;;;;;;;29.55;11.93;;;;;;;7.08;66.16;99281.52;1663817;85;21446;-63
2021/03/16 08:44:00;;;;;;;33.73;15.15;;;;;;;7.12;66.13;99280.07;1661688;85;21282;-63
2021/03/16 08:46:46;;;;;;;33.80;15.70;;;;;;;7.21;66.39;99279.41;1695565;83;21119;-64
2021/03/16 08:49:43;;;;;;;30.37;15.88;;;;;;;7.29;66.28;99277.86;1702139;82;21470;-66
2021/03/16 08:52:29;;;;;;;34.50;16.90;;;;;;;7.38;66.50;99286.70;1680869;83;21031;-63
2021/03/16 08:55:29;;;;;;;31.12;15.05;;;;;;;7.45;66.38;99282.11;1672213;84;21182;-63
2021/03/16 08:58:23;;;;;;;30.35;15.38;;;;;;;7.54;65.98;99289.89;1676726;84;21073;-65
2021/03/16 09:01:29;;;;;;;32.25;16.05;;;;;;;7.63;65.68;99287.30;1654921;84;21213;-65
2021/03/16 09:04:18;;;;;;;34.48;16.05;;;;;;;7.74;65.49;99280.92;1675322;83;21747;-66
2021/03/16 09:07:05;;;;;;;35.47;17.97;;;;;;;7.78;65.00;99286.27;1669872;85;21092;-67
2021/03/16 09:09:53;;;;;;;34.33;18.23;;;;;;;7.81;64.71;99284.00;1662665;85;21383;-64
2021/03/16 09:12:41;;;;;;;29.45;15.78;;;;;;;7.87;64.59;99283.70;1664363;85;21102;-63
2021/03/16 09:15:31;;;;;;;36.17;16.87;;;;;;;7.98;64.55;99287.70;1673718;84;21093;-64
2021/03/16 09:18:18;;;;;;;27.58;15.98;;;;;;;8.07;64.35;99270.92;1673549;84;21243;-64
2021/03/16 09:21:05;;;;;;;28.65;14.78;;;;;;;8.15;64.09;99280.78;1678556;83;21839;-66
2021/03/16 09:23:57;;;;;;;31.45;16.52;;;;;;;8.23;64.13;99278.69;1674709;83;21324;-65
2021/03/16 09:26:43;;;;;;;26.05;14.90;;;;;;;8.32;64.31;99271.13;1686960;84;21346;-66
2021/03/16 09:29:31;;;;;;;28.02;13.58;;;;;;;8.46;64.15;99274.22;1712941;83;21050;-62
2021/03/16 09:32:19;;;;;;;36.05;19.02;;;;;;;8.54;63.51;99263.08;1678080;83;21105;-65
2021/03/16 09:35:06;;;;;;;29.20;15.40;;;;;;;8.66;63.42;99274.19;1676172;84;21089;-66
2021/03/16 09:37:53;;;;;;;38.58;20.23;;;;;;;8.74;62.87;99269.02;1676026;84;21214;-64
2021/03/16 09:40:33;;;;;;;35.33;19.50;;;;;;;8.79;62.55;99274.69;1684390;84;21334;-64
2021/03/16 09:43:04;;;;;;;31.50;17.75;;;;;;;8.82;62.31;99264.17;1694915;83;21089;-62
2021/03/16 09:45:32;;;;;;;34.58;18.12;;;;;;;8.85;62.11;99275.19;1698291;83;21825;-66
2021/03/16 09:47:59;;;;;;;27.30;15.28;;;;;;;8.85;61.86;99271.09;1705360;83;21356;-61
2021/03/16 09:50:33;;;;;;;28.62;14.58;;;;;;;8.82;61.45;99275.09;1699996;83;21068;-64
2021/03/16 09:53:04;;;;;;;29.32;16.85;;;;;;;8.79;61.48;99275.52;1709514;83;21032;-66
2021/03/16 09:55:32;;;;;;;34.38;15.08;;;;;;;8.81;61.63;99283.50;1692435;84;21094;-67
2021/03/16 09:58:00;;;;;;;24.00;14.03;;;;;;;8.86;62.14;99284.55;1697259;83;21358;-64
2021/03/16 10:00:28;;;;;;;22.58;13.50;;;;;;;8.94;62.23;99290.83;1691773;84;21340;-65
2021/03/16 10:03:08;;;;;;;24.37;14.30;;;;;;;8.98;61.92;99301.11;1694615;84;21803;-63
2021/03/16 10:05:37;;;;;;;34.80;15.35;;;;;;;9.03;61.77;99298.57;1675133;83;21133;-67
2021/03/16 10:08:09;;;;;;;28.65;17.15;;;;;;;9.07;61.80;99301.19;1669444;84;21121;-67
2021/03/16 10:10:46;;;;;;;29.00;17.40;;;;;;;9.11;61.68;99305.73;1698861;84;21090;-67
2021/03/16 10:13:14;;;;;;;31.05;15.83;;;;;;;9.15;61.80;99307.81;1682171;84;21532;-66
2021/03/16 10:15:47;;;;;;;28.80;15.38;;;;;;;9.15;61.66;99305.08;1680909;83;21212;-70
2021/03/16 10:18:15;;;;;;;25.97;15.25;;;;;;;9.08;61.73;99303.39;1662588;86;21247;-67
2021/03/16 10:20:50;;;;;;;24.60;13.38;;;;;;;8.96;62.04;99297.75;1684826;84;21168;-69
2021/03/16 10:23:22;;;;;;;26.07;14.00;;;;;;;8.91;62.33;99298.92;1682584;84;21363;-64
2021/03/16 10:25:57;;;;;;;27.05;14.18;;;;;;;8.87;62.40;99308.59;1682802;84;21709;-67
2021/03/16 10:28:37;;;;;;;26.45;14.60;;;;;;;8.83;62.35;99310.08;1706435;84;21079;-65
2021/03/16 10:31:20;;;;;;;29.72;15.75;;;;;;;8.76;62.58;99305.16;1694660;84;21393;-67
2021/03/16 10:33:53;;;;;;;26.68;14.93;;;;;;;8.69;62.69;99305.69;1698792;84;21088;-66
2021/03/16 10:36:23;;;;;;;26.68;14.63;;;;;;;8.59;63.00;99302.03;1716815;83;21345;-68
2021/03/16 10:38:51;;;;;;;23.73;13.88;;;;;;;8.52;63.43;99303.92;1692136;83;21079;-66
2021/03/16 10:41:20;;;;;;;25.30;13.40;;;;;;;8.45;63.71;99292.14;1686982;83;21520;-66
2021/03/16 10:43:48;;;;;;;27.60;14.05;;;;;;;8.44;63.77;99303.59;1697036;83;21124;-64
2021/03/16 10:46:16;;;;;;;26.60;13.45;;;;;;;8.47;63.92;99301.83;1692516;84;21077;-64
2021/03/16 10:48:45;;;;;;;25.62;13.03;;;;;;;8.51;64.08;99293.53;1713937;83;21086;-67
2021/03/16 10:51:12;;;;;;;22.35;12.03;;;;;;;8.57;64.03;99295.94;1686186;84;21292;-68
2021/03/16 10:53:40;;;;;;;21.57;11.65;;;;;;;8.65;63.68;99290.78;1685922;84;21728;-63
2021/03/16 10:56:08;;;;;;;26.68;12.58;;;;;;;8.70;63.77;99286.89;1687586;83;21054;-65
2021/03/16 10:58:36;;;;;;;20.57;11.73;;;;;;;8.77;64.04;99284.45;1715253;83;21099;-73
2021/03/16 11:01:03;;;;;;;22.73;11.68;;;;;;;8.90;63.95;99287.69;1714789;82;21126;-71
2021/03/16 11:03:33;;;;;;;24.25;11.93;;;;;;;9.02;63.38;99276.41;1713890;83;21097;-65
2021/03/16 11:06:02;;;;;;;23.25;12.15;;;;;;;9.11;63.20;99275.67;1708500;83;21846;-64
2021/03/16 11:08:31;;;;;;;25.90;11.83;;;;;;;9.21;63.36;99278.25;1684089;83;21054;-65
2021/03/16 11:10:59;;;;;;;22.75;10.72;;;;;;;9.32;62.82;99275.90;1683938;83;21197;-63
2021/03/16 11:13:26;;;;;;;17.35;10.85;;;;;;;9.43;62.19;99269.75;1697972;83;21351;-63
2021/03/16 11:15:54;;;;;;;22.90;10.53;;;;;;;9.50;61.60;99263.72;1691979;84;21297;-66
2021/03/16 11:18:22;;;;;;;16.60;9.90;;;;;;;9.59;61.38;99258.30;1711154;83;21140;-63
2021/03/16 11:20:50;;;;;;;17.57;10.23;;;;;;;9.66;61.02;99254.16;1693262;84;21322;-66
2021/03/16 11:23:17;;;;;;;26.50;10.43;;;;;;;9.72;60.75;99255.48;1675917;84;21118;-62
2021/03/16 11:25:46;;;;;;;19.17;10.05;;;;;;;9.77;60.06;99254.32;1699766;83;21131;-63
2021/03/16 11:28:14;;;;;;;19.50;10.38;;;;;;;9.81;59.92;99254.19;1717845;83;21375;-65
2021/03/16 11:30:41;;;;;;;20.32;11.53;;;;;;;9.84;59.74;99252.38;1681208;84;21193;-65
2021/03/16 11:33:09;;;;;;;20.32;10.93;;;;;;;9.86;59.83;99241.22;1696887;83;21093;-67
2021/03/16 11:35:56;;;;;;;;;;;;;;;9.95;59.75;99245.89;1701523;83;21110;-65
2021/03/16 11:38:43;;;;;;;21.05;10.60;;;;;;;10.06;59.31;99236.42;1699136;83;20244;-65
2021/03/16 11:41:29;;;;;;;19.25;9.65;;;;;;;10.13;58.72;99240.48;1684405;83;21770;-65
2021/03/16 11:44:15;;;;;;;23.15;10.43;;;;;;;10.19;58.98;99239.58;1684003;85;21312;-63
2021/03/16 11:47:01;;;;;;;20.65;11.18;;;;;;;10.23;58.79;99236.73;1680221;83;21086;-62
2021/03/16 11:49:47;;;;;;;20.97;10.30;;;;;;;10.21;58.47;99247.08;1674560;83;22041;-64
2021/03/16 11:52:33;;;;;;;17.40;10.18;;;;;;;10.14;58.80;99245.73;1679573;85;21066;-63
2021/03/16 11:55:19;;;;;;;22.62;10.72;;;;;;;10.14;58.94;99244.36;1676221;85;21851;-62
2021/03/16 11:58:05;;;;;;;17.85;10.68;;;;;;;10.17;59.87;99234.86;1674404;85;21260;-64
2021/03/16 12:00:51;;;;;;;25.68;12.40;;;;;;;10.25;60.31;99234.61;1677273;85;21296;-64
2021/03/16 12:03:37;;;;;;;22.48;13.68;;;;;;;10.35;60.28;99231.37;1682832;84;21086;-64
2021/03/16 12:06:24;;;;;;;20.37;11.25;;;;;;;10.47;60.35;99237.81;1690032;84;21294;-63
2021/03/16 12:09:11;;;;;;;18.25;10.58;;;;;;;10.61;60.13;99235.78;1672653;85;21107;-63
2021/03/16 12:11:58;;;;;;;21.02;11.25;;;;;;;10.72;59.85;99228.17;1673128;85;21829;-63
2021/03/16 12:14:45;;;;;;;26.00;11.53;;;;;;;10.75;58.90;99227.19;1663552;85;21218;-64
2021/03/16 12:17:31;;;;;;;18.77;9.65;;;;;;;10.79;58.82;99242.64;1669536;85;21186;-65
2021/03/16 12:20:17;;;;;;;20.27;9.38;;;;;;;10.83;58.51;99230.16;1667844;85;21149;-67
2021/03/16 12:23:03;;;;;;;17.25;9.40;;;;;;;10.87;57.96;99235.48;1673160;85;21388;-62
2021/03/16 12:25:52;;;;;;;33.92;14.30;;;;;;;10.90;58.14;99230.08;1680628;83;21868;-62
2021/03/16 12:28:37;;;;;;;19.75;11.03;;;;;;;11.02;58.41;99240.05;1692246;83;21117;-63
2021/03/16 12:31:23;;;;;;;16.62;9.18;;;;;;;11.19;58.10;99238.09;1692863;83;22006;-63
2021/03/16 12:34:10;;;;;;;19.30;10.65;;;;;;;11.28;57.76;99232.06;1674322;84;21397;-63